createdAt,value
2022-12-27T00:04:39.765Z,6.14
2022-12-27T00:09:41.181Z,6.15
2022-12-27T00:14:42.468Z,6.18
2022-12-27T00:19:43.897Z,6.23
2022-12-27T00:24:45.268Z,6.17
2022-12-27T00:29:46.618Z,6.21
2022-12-27T00:34:48.237Z,6.15
2022-12-27T00:39:49.582Z,5.97
2022-12-27T00:44:50.923Z,5.85
2022-12-27T00:49:52.320Z,5.83
2022-12-27T00:54:53.913Z,5.87
2022-12-27T00:59:55.271Z,5.86
2022-12-27T01:04:57.380Z,5.79
2022-12-27T01:09:59.019Z,5.78
2022-12-27T01:15:00.421Z,5.86
2022-12-27T01:20:02.133Z,5.88
2022-12-27T01:25:03.699Z,5.79
2022-12-27T01:30:06.389Z,5.64
2022-12-27T01:35:08.567Z,5.56
2022-12-27T01:40:10.573Z,5.47
2022-12-27T01:45:27.846Z,5.62
2022-12-27T01:50:35.845Z,5.43
2022-12-27T01:55:49.088Z,5.33
2022-12-27T02:00:51.123Z,5.41
2022-12-27T02:05:52.907Z,5.51
2022-12-27T02:10:55.298Z,5.16
2022-12-27T02:15:56.631Z,5.13
2022-12-27T02:21:18.485Z,5.13
2022-12-27T02:26:55.321Z,5.19
2022-12-27T02:32:06.171Z,5.08
2022-12-27T02:37:12.071Z,5.02
2022-12-27T02:42:33.996Z,5.08
2022-12-27T02:47:54.859Z,5.03
2022-12-27T02:53:09.881Z,5.02
2022-12-27T02:58:30.555Z,5.07
2022-12-27T03:04:05.721Z,5.19
2022-12-27T03:09:41.665Z,5.18
2022-12-27T03:15:06.708Z,5.25
2022-12-27T03:20:34.632Z,5.19
2022-12-27T03:25:37.559Z,4.99
2022-12-27T03:30:58.716Z,4.95
2022-12-27T03:36:25.021Z,5.02
2022-12-27T03:42:03.498Z,5.00
2022-12-27T03:47:35.659Z,5.00
2022-12-27T03:52:49.061Z,4.82
2022-12-27T03:57:51.041Z,4.66
2022-12-27T04:02:52.481Z,4.57
2022-12-27T04:08:12.293Z,4.51
2022-12-27T04:13:32.072Z,4.58
2022-12-27T04:18:51.840Z,4.53
2022-12-27T04:24:11.700Z,4.47
2022-12-27T04:29:31.561Z,4.40
2022-12-27T04:34:45.037Z,4.19
2022-12-27T04:40:07.718Z,4.16
2022-12-27T04:45:28.324Z,4.01
2022-12-27T04:50:51.063Z,3.92
2022-12-27T04:55:52.478Z,3.82
2022-12-27T05:01:14.517Z,3.79
2022-12-27T05:06:16.799Z,3.50
2022-12-27T05:11:37.046Z,3.68
2022-12-27T05:16:40.437Z,3.70
2022-12-27T05:22:04.722Z,3.66
2022-12-27T05:27:06.067Z,3.71
2022-12-27T05:32:12.844Z,3.74
2022-12-27T05:37:14.808Z,3.65
2022-12-27T05:42:16.191Z,3.71
2022-12-27T05:47:17.534Z,3.64
2022-12-27T05:52:19.371Z,3.58
2022-12-27T05:57:20.754Z,3.61
2022-12-27T06:02:22.310Z,3.52
2022-12-27T06:07:23.832Z,3.58
2022-12-27T06:12:25.250Z,3.63
2022-12-27T06:17:26.636Z,3.71
2022-12-27T06:22:27.974Z,3.72
2022-12-27T06:27:29.282Z,3.70
2022-12-27T06:32:31.744Z,3.63
2022-12-27T06:37:33.119Z,3.59
2022-12-27T06:42:34.472Z,3.61
2022-12-27T06:47:42.777Z,3.64
2022-12-27T06:52:44.329Z,3.63
2022-12-27T06:57:45.676Z,3.71
2022-12-27T07:02:47.895Z,3.74
2022-12-27T07:07:49.819Z,3.75
2022-12-27T07:12:51.260Z,3.69
2022-12-27T07:17:52.826Z,3.66
2022-12-27T07:22:54.343Z,3.75
2022-12-27T07:27:55.846Z,3.74
2022-12-27T07:32:57.543Z,3.72
2022-12-27T07:37:58.933Z,3.69
2022-12-27T07:43:00.359Z,3.74
2022-12-27T07:48:01.715Z,3.68
2022-12-27T07:53:03.422Z,3.69
2022-12-27T07:58:04.920Z,4.05
2022-12-27T08:03:06.373Z,4.07
2022-12-27T08:08:07.835Z,4.07
2022-12-27T08:13:09.500Z,4.10
2022-12-27T08:18:11.221Z,4.12
2022-12-27T08:23:12.606Z,4.23
2022-12-27T08:28:16.368Z,4.22
2022-12-27T08:33:17.795Z,4.26
2022-12-27T08:38:19.227Z,4.25
2022-12-27T08:43:20.614Z,4.41
2022-12-27T08:48:21.995Z,4.46
2022-12-27T08:53:23.647Z,4.48
2022-12-27T08:58:25.057Z,4.65
2022-12-27T09:03:26.432Z,4.70
2022-12-27T09:08:27.932Z,4.77
2022-12-27T09:13:29.350Z,4.94
2022-12-27T09:18:30.675Z,4.82
2022-12-27T09:23:32.062Z,5.03
2022-12-27T09:28:33.661Z,5.08
2022-12-27T09:33:35.163Z,5.09
2022-12-27T09:38:37.208Z,5.13
2022-12-27T09:43:53.502Z,5.12
2022-12-27T09:48:56.341Z,5.15
2022-12-27T09:54:15.834Z,5.17
2022-12-27T09:59:29.329Z,5.28
2022-12-27T10:05:09.802Z,5.45
2022-12-27T10:10:14.009Z,5.63
2022-12-27T10:15:39.632Z,5.89
2022-12-27T10:20:53.448Z,5.89
2022-12-27T10:26:02.609Z,6.12
2022-12-27T10:31:04.557Z,6.45
2022-12-27T10:36:15.131Z,6.50
2022-12-27T10:41:19.583Z,6.74
2022-12-27T10:46:32.222Z,7.17
2022-12-27T10:51:39.787Z,7.63
2022-12-27T10:56:44.184Z,7.43
2022-12-27T11:01:47.878Z,7.20
2022-12-27T11:06:51.918Z,7.47
2022-12-27T11:12:16.648Z,7.36
2022-12-27T11:17:18.722Z,9.22
2022-12-27T11:22:20.649Z,10.20
2022-12-27T11:27:26.018Z,9.49
2022-12-27T11:32:27.576Z,7.88
2022-12-27T11:37:29.020Z,10.59
2022-12-27T11:42:38.376Z,9.38
2022-12-27T11:47:53.226Z,8.29
2022-12-27T11:53:27.897Z,7.88
2022-12-27T11:58:49.463Z,9.48
2022-12-27T12:04:28.607Z,14.41
2022-12-27T12:09:56.490Z,17.07
2022-12-27T12:15:33.702Z,18.11
2022-12-27T12:20:51.319Z,19.47
2022-12-27T12:26:11.050Z,20.22
2022-12-27T12:31:37.181Z,19.58
2022-12-27T12:36:52.460Z,15.70
2022-12-27T12:42:00.282Z,17.19
2022-12-27T12:47:22.983Z,14.76
2022-12-27T12:52:42.688Z,12.35
2022-12-27T12:58:16.639Z,15.52
2022-12-27T13:03:19.222Z,17.58
2022-12-27T13:08:40.854Z,18.73
2022-12-27T13:13:55.929Z,19.24
2022-12-27T13:19:22.347Z,19.48
2022-12-27T13:25:06.317Z,17.80
2022-12-27T13:30:22.532Z,18.08
2022-12-27T13:35:42.356Z,17.61
2022-12-27T13:41:23.657Z,16.00
2022-12-27T13:47:13.144Z,14.66
2022-12-27T13:52:35.324Z,12.48
2022-12-27T13:57:47.028Z,10.78
2022-12-27T14:03:17.529Z,10.04
2022-12-27T14:08:37.630Z,9.28
2022-12-27T14:13:43.340Z,8.96
2022-12-27T14:19:10.798Z,8.68
2022-12-27T14:24:34.219Z,8.59
2022-12-27T14:29:53.905Z,8.38
2022-12-27T14:35:16.197Z,8.07
2022-12-27T14:40:34.428Z,7.97
2022-12-27T14:46:14.339Z,7.76
2022-12-27T14:51:59.962Z,7.65
2022-12-27T14:57:11.988Z,7.64
2022-12-27T15:02:47.859Z,7.34
2022-12-27T15:08:21.551Z,7.06
2022-12-27T15:13:41.332Z,6.93
2022-12-27T15:18:49.155Z,6.71
2022-12-27T15:24:00.170Z,6.70
2022-12-27T15:29:24.036Z,6.79
2022-12-27T15:34:36.089Z,6.80
2022-12-27T15:39:37.383Z,6.85
2022-12-27T15:45:05.391Z,6.78
2022-12-27T15:50:25.730Z,6.76
2022-12-27T15:55:30.288Z,6.65
2022-12-27T16:00:34.307Z,6.59
2022-12-27T16:05:48.970Z,6.39
2022-12-27T16:10:50.980Z,6.28
2022-12-27T16:15:54.149Z,6.12
2022-12-27T16:20:57.364Z,6.04
2022-12-27T16:26:10.912Z,5.96
2022-12-27T16:31:12.976Z,5.85
2022-12-27T16:36:26.346Z,5.82
2022-12-27T16:41:27.726Z,5.70
2022-12-27T16:46:47.937Z,5.73
2022-12-27T16:52:17.377Z,5.65
2022-12-27T16:57:24.407Z,5.66
2022-12-27T17:02:38.856Z,5.63
2022-12-27T17:07:50.190Z,5.61
2022-12-27T17:13:00.631Z,5.58
2022-12-27T17:18:22.658Z,5.61
2022-12-27T17:23:24.185Z,5.59
2022-12-27T17:28:32.787Z,5.56
2022-12-27T17:33:54.024Z,5.65
2022-12-27T17:39:06.865Z,5.66
2022-12-27T17:44:37.856Z,5.67
2022-12-27T17:49:40.424Z,5.82
2022-12-27T17:55:00.640Z,5.92
2022-12-27T18:00:03.726Z,5.99
2022-12-27T18:05:12.483Z,6.01
2022-12-27T18:10:22.777Z,6.05
2022-12-27T18:15:27.050Z,6.08
2022-12-27T18:20:28.744Z,6.05
2022-12-27T18:25:32.475Z,5.98
2022-12-27T18:30:42.302Z,5.91
2022-12-27T18:35:49.304Z,5.85
2022-12-27T18:41:00.197Z,5.83
2022-12-27T18:46:03.337Z,5.83
2022-12-27T18:51:05.172Z,5.64
2022-12-27T18:56:23.505Z,5.68
2022-12-27T19:01:32.711Z,5.68
2022-12-27T19:06:34.207Z,5.64
2022-12-27T19:11:36.721Z,5.51
2022-12-27T19:16:38.257Z,5.56
2022-12-27T19:21:39.742Z,5.70
2022-12-27T19:26:41.143Z,5.78
2022-12-27T19:31:44.954Z,5.81
2022-12-27T19:36:48.611Z,5.74
2022-12-27T19:41:51.039Z,5.73
2022-12-27T19:46:52.372Z,5.76
2022-12-27T19:51:58.255Z,5.84
2022-12-27T19:56:59.728Z,5.83
2022-12-27T20:02:01.290Z,5.84
2022-12-27T20:07:03.339Z,5.70
2022-12-27T20:12:05.255Z,5.80
2022-12-27T20:17:06.665Z,5.79
2022-12-27T20:22:08.014Z,5.69
2022-12-27T20:27:09.470Z,5.70
2022-12-27T20:32:10.904Z,5.58
2022-12-27T20:37:12.408Z,5.54
2022-12-27T20:42:13.801Z,5.54
2022-12-27T20:47:15.201Z,5.45
2022-12-27T20:52:16.895Z,5.36
2022-12-27T20:57:18.340Z,5.43
2022-12-27T21:02:20.026Z,5.60
2022-12-27T21:07:21.543Z,5.69
2022-12-27T21:12:23.022Z,5.73
2022-12-27T21:17:24.679Z,5.77
2022-12-27T21:22:26.400Z,5.75
2022-12-27T21:27:27.859Z,5.74
2022-12-27T21:32:29.659Z,5.77
2022-12-27T21:37:30.984Z,5.67
2022-12-27T21:42:32.287Z,5.47
2022-12-27T21:47:33.729Z,5.49
2022-12-27T21:52:35.118Z,5.46
2022-12-27T21:57:36.458Z,5.32
2022-12-27T22:02:38.101Z,5.36
2022-12-27T22:07:42.109Z,5.23
2022-12-27T22:12:43.456Z,5.42
2022-12-27T22:17:44.850Z,5.40
2022-12-27T22:22:46.384Z,5.31
2022-12-27T22:27:47.752Z,5.13
2022-12-27T22:32:49.079Z,5.39
2022-12-27T22:37:50.433Z,5.49
2022-12-27T22:42:51.749Z,5.45
2022-12-27T22:47:53.461Z,5.48
2022-12-27T22:52:54.888Z,5.47
2022-12-27T22:57:56.251Z,5.56
2022-12-27T23:02:57.599Z,5.54
2022-12-27T23:08:06.236Z,5.64
2022-12-27T23:13:08.261Z,5.59
2022-12-27T23:18:09.755Z,5.60
2022-12-27T23:23:11.320Z,5.69
2022-12-27T23:28:12.753Z,5.52
2022-12-27T23:33:14.124Z,5.57
2022-12-27T23:38:15.531Z,5.52
2022-12-27T23:43:50.532Z,5.52
2022-12-27T23:48:38.190Z,5.49
2022-12-27T23:53:40.379Z,5.55
2022-12-27T23:58:42.729Z,5.43
